sensor_id;sensor_type;location;lat;lon;timestamp;pressure;altitude;pressure_sealevel;temperature;humidity
50977;BME280;36992;48.200;12.418;2024-03-22T00:00:39;97441.09;;;12.13;56.95
50977;BME280;36992;48.200;12.418;2024-03-22T00:03:06;97437.06;;;12.10;56.99
50977;BME280;36992;48.200;12.418;2024-03-22T00:05:31;97426.56;;;12.09;57.16
50977;BME280;36992;48.200;12.418;2024-03-22T00:07:58;97430.63;;;12.06;57.02
50977;BME280;36992;48.200;12.418;2024-03-22T00:10:24;97428.75;;;12.01;57.10
50977;BME280;36992;48.200;12.418;2024-03-22T00:12:50;97417.97;;;12.01;57.22
50977;BME280;36992;48.200;12.418;2024-03-22T00:15:17;97417.97;;;12.01;56.93
50977;BME280;36992;48.200;12.418;2024-03-22T00:17:44;97422.31;;;11.97;57.04
50977;BME280;36992;48.200;12.418;2024-03-22T00:20:10;97417.19;;;11.96;57.07
50977;BME280;36992;48.200;12.418;2024-03-22T00:22:37;97422.88;;;11.94;57.14
50977;BME280;36992;48.200;12.418;2024-03-22T00:25:03;97421.25;;;11.93;57.19
50977;BME280;36992;48.200;12.418;2024-03-22T00:27:30;97422.63;;;11.91;57.07
50977;BME280;36992;48.200;12.418;2024-03-22T00:29:55;97429.41;;;11.88;57.11
50977;BME280;36992;48.200;12.418;2024-03-22T00:32:23;97428.88;;;11.86;57.12
50977;BME280;36992;48.200;12.418;2024-03-22T00:34:49;97421.38;;;11.83;57.05
50977;BME280;36992;48.200;12.418;2024-03-22T00:37:15;97422.72;;;11.80;57.02
50977;BME280;36992;48.200;12.418;2024-03-22T00:39:41;97422.72;;;11.80;57.15
50977;BME280;36992;48.200;12.418;2024-03-22T00:42:07;97421.13;;;11.79;57.29
50977;BME280;36992;48.200;12.418;2024-03-22T00:44:33;97425.72;;;11.79;57.01
50977;BME280;36992;48.200;12.418;2024-03-22T00:46:59;97430.28;;;11.78;57.05
50977;BME280;36992;48.200;12.418;2024-03-22T00:49:26;97428.41;;;11.79;57.01
50977;BME280;36992;48.200;12.418;2024-03-22T00:51:52;97415.47;;;11.76;57.27
50977;BME280;36992;48.200;12.418;2024-03-22T00:54:20;97410.38;;;11.74;56.87
50977;BME280;36992;48.200;12.418;2024-03-22T00:56:46;97414.94;;;11.73;57.18
50977;BME280;36992;48.200;12.418;2024-03-22T00:59:12;97409.03;;;11.71;57.21
50977;BME280;36992;48.200;12.418;2024-03-22T01:01:39;97409.03;;;11.71;57.07
50977;BME280;36992;48.200;12.418;2024-03-22T01:04:04;97397.69;;;11.69;57.20
50977;BME280;36992;48.200;12.418;2024-03-22T01:06:32;97399.34;;;11.70;56.95
50977;BME280;36992;48.200;12.418;2024-03-22T01:08:58;97392.59;;;11.68;56.92
50977;BME280;36992;48.200;12.418;2024-03-22T01:11:24;97395.31;;;11.68;56.99
50977;BME280;36992;48.200;12.418;2024-03-22T01:13:50;97386.38;;;11.67;56.77
50977;BME280;36992;48.200;12.418;2024-03-22T01:16:16;97383.97;;;11.66;56.98
50977;BME280;36992;48.200;12.418;2024-03-22T01:18:42;97381.56;;;11.64;56.94
50977;BME280;36992;48.200;12.418;2024-03-22T01:21:08;97387.50;;;11.61;56.88
50977;BME280;36992;48.200;12.418;2024-03-22T01:23:35;97382.94;;;11.62;56.93
50977;BME280;36992;48.200;12.418;2024-03-22T01:26:02;97376.75;;;11.56;57.00
50977;BME280;36992;48.200;12.418;2024-03-22T01:28:27;97380.03;;;11.53;56.73
50977;BME280;36992;48.200;12.418;2024-03-22T01:30:54;97382.19;;;11.51;57.13
50977;BME280;36992;48.200;12.418;2024-03-22T01:33:19;97377.09;;;11.49;57.05
50977;BME280;36992;48.200;12.418;2024-03-22T01:35:46;97373.06;;;11.46;57.23
50977;BME280;36992;48.200;12.418;2024-03-22T01:38:11;97376.84;;;11.45;57.10
50977;BME280;36992;48.200;12.418;2024-03-22T01:40:39;97373.34;;;11.45;56.95
50977;BME280;36992;48.200;12.418;2024-03-22T01:43:05;97372.81;;;11.43;57.11
50977;BME280;36992;48.200;12.418;2024-03-22T01:45:32;97368.53;;;11.42;56.79
50977;BME280;36992;48.200;12.418;2024-03-22T01:47:58;97370.41;;;11.41;56.89
50977;BME280;36992;48.200;12.418;2024-03-22T01:50:26;97365.00;;;11.41;57.15
50977;BME280;36992;48.200;12.418;2024-03-22T01:52:52;97363.41;;;11.40;56.63
50977;BME280;36992;48.200;12.418;2024-03-22T01:55:19;97360.47;;;11.37;56.89
50977;BME280;36992;48.200;12.418;2024-03-22T01:57:46;97359.09;;;11.39;56.78
50977;BME280;36992;48.200;12.418;2024-03-22T02:00:13;97355.63;;;11.33;57.04
50977;BME280;36992;48.200;12.418;2024-03-22T02:02:39;97362.38;;;11.31;57.06
50977;BME280;36992;48.200;12.418;2024-03-22T02:05:12;97364.78;;;11.32;56.74
50977;BME280;36992;48.200;12.418;2024-03-22T02:07:38;97361.34;;;11.27;56.94
50977;BME280;36992;48.200;12.418;2024-03-22T02:10:05;97363.50;;;11.25;57.05
50977;BME280;36992;48.200;12.418;2024-03-22T02:12:33;97358.69;;;11.22;57.03
50977;BME280;36992;48.200;12.418;2024-03-22T02:15:02;97374.84;;;11.22;56.90
50977;BME280;36992;48.200;12.418;2024-03-22T02:17:27;97363.00;;;11.17;57.15
50977;BME280;36992;48.200;12.418;2024-03-22T02:19:54;97363.59;;;11.14;57.09
50977;BME280;36992;48.200;12.418;2024-03-22T02:22:19;97360.06;;;11.14;57.32
50977;BME280;36992;48.200;12.418;2024-03-22T02:24:47;97360.34;;;11.12;57.27
50977;BME280;36992;48.200;12.418;2024-03-22T02:27:12;97343.13;;;11.08;57.29
50977;BME280;36992;48.200;12.418;2024-03-22T02:29:39;97344.19;;;11.07;57.52
50977;BME280;36992;48.200;12.418;2024-03-22T02:32:05;97339.88;;;11.06;57.40
50977;BME280;36992;48.200;12.418;2024-03-22T02:34:32;97340.69;;;11.06;57.21
50977;BME280;36992;48.200;12.418;2024-03-22T02:36:57;97340.44;;;11.08;57.37
50977;BME280;36992;48.200;12.418;2024-03-22T02:39:24;97326.94;;;11.08;57.08
50977;BME280;36992;48.200;12.418;2024-03-22T02:41:51;97336.38;;;11.11;56.97
50977;BME280;36992;48.200;12.418;2024-03-22T02:44:18;97332.34;;;11.08;57.13
50977;BME280;36992;48.200;12.418;2024-03-22T02:46:43;97330.44;;;11.09;57.16
50977;BME280;36992;48.200;12.418;2024-03-22T02:49:10;97328.56;;;11.09;57.25
50977;BME280;36992;48.200;12.418;2024-03-22T02:51:35;97330.44;;;11.09;57.11
50977;BME280;36992;48.200;12.418;2024-03-22T02:54:02;97320.47;;;11.09;56.87
50977;BME280;36992;48.200;12.418;2024-03-22T02:56:28;97308.88;;;11.09;56.99
50977;BME280;36992;48.200;12.418;2024-03-22T03:05:39;97306.16;;;11.09;56.78
50977;BME280;36992;48.200;12.418;2024-03-22T03:08:06;97308.91;;;11.03;56.85
50977;BME280;36992;48.200;12.418;2024-03-22T03:10:32;97302.72;;;11.03;56.88
50977;BME280;36992;48.200;12.418;2024-03-22T03:12:58;97307.28;;;11.02;56.70
50977;BME280;36992;48.200;12.418;2024-03-22T03:15:24;97305.69;;;11.01;56.82
50977;BME280;36992;48.200;12.418;2024-03-22T03:17:50;97297.88;;;11.00;56.54
50977;BME280;36992;48.200;12.418;2024-03-22T03:20:17;97302.47;;;10.99;56.63
50977;BME280;36992;48.200;12.418;2024-03-22T03:22:45;97296.25;;;10.99;56.23
50977;BME280;36992;48.200;12.418;2024-03-22T03:25:11;97298.44;;;10.97;56.50
50977;BME280;36992;48.200;12.418;2024-03-22T03:27:37;97294.41;;;10.94;56.35
50977;BME280;36992;48.200;12.418;2024-03-22T03:30:03;97300.91;;;10.93;56.46
50977;BME280;36992;48.200;12.418;2024-03-22T03:32:30;97296.88;;;10.90;56.41
50977;BME280;36992;48.200;12.418;2024-03-22T03:34:56;97303.91;;;10.86;56.17
50977;BME280;36992;48.200;12.418;2024-03-22T03:37:22;97302.03;;;10.82;56.71
50977;BME280;36992;48.200;12.418;2024-03-22T03:39:49;97295.03;;;10.81;56.51
50977;BME280;36992;48.200;12.418;2024-03-22T03:42:16;97297.75;;;10.75;56.59
50977;BME280;36992;48.200;12.418;2024-03-22T03:44:41;97282.13;;;10.72;56.79
50977;BME280;36992;48.200;12.418;2024-03-22T03:47:08;97286.50;;;10.68;56.58
50977;BME280;36992;48.200;12.418;2024-03-22T03:49:33;97281.66;;;10.65;56.36
50977;BME280;36992;48.200;12.418;2024-03-22T03:52:00;97291.09;;;10.62;56.62
50977;BME280;36992;48.200;12.418;2024-03-22T03:54:25;97282.75;;;10.59;56.50
50977;BME280;36992;48.200;12.418;2024-03-22T03:56:53;97274.97;;;10.57;56.80
50977;BME280;36992;48.200;12.418;2024-03-22T03:59:19;97280.91;;;10.54;56.42
50977;BME280;36992;48.200;12.418;2024-03-22T04:01:45;97281.47;;;10.51;56.64
50977;BME280;36992;48.200;12.418;2024-03-22T04:04:11;97276.63;;;10.48;56.71
50977;BME280;36992;48.200;12.418;2024-03-22T04:06:37;97277.19;;;10.45;56.43
50977;BME280;36992;48.200;12.418;2024-03-22T04:09:03;97280.94;;;10.44;56.79
50977;BME280;36992;48.200;12.418;2024-03-22T04:11:30;97275.59;;;10.38;56.35
50977;BME280;36992;48.200;12.418;2024-03-22T04:13:57;97272.88;;;10.38;57.01
50977;BME280;36992;48.200;12.418;2024-03-22T04:16:24;97270.72;;;10.35;56.81
50977;BME280;36992;48.200;12.418;2024-03-22T04:18:49;97277.22;;;10.34;56.44
50977;BME280;36992;48.200;12.418;2024-03-22T04:21:17;97275.59;;;10.33;56.70
50977;BME280;36992;48.200;12.418;2024-03-22T04:23:42;97268.06;;;10.30;56.78
50977;BME280;36992;48.200;12.418;2024-03-22T04:26:10;97263.75;;;10.29;56.54
50977;BME280;36992;48.200;12.418;2024-03-22T04:28:35;97262.69;;;10.25;56.63
50977;BME280;36992;48.200;12.418;2024-03-22T04:31:05;97265.38;;;10.25;56.32
50977;BME280;36992;48.200;12.418;2024-03-22T04:33:32;97263.81;;;10.19;56.58
50977;BME280;36992;48.200;12.418;2024-03-22T04:35:59;97261.66;;;10.16;56.74
50977;BME280;36992;48.200;12.418;2024-03-22T04:38:26;97263.03;;;10.13;56.84
50977;BME280;36992;48.200;12.418;2024-03-22T04:40:53;97255.22;;;10.11;56.86
50977;BME280;36992;48.200;12.418;2024-03-22T04:43:20;97254.69;;;10.09;57.00
50977;BME280;36992;48.200;12.418;2024-03-22T04:45:47;97253.09;;;10.08;56.75
50977;BME280;36992;48.200;12.418;2024-03-22T04:48:16;97247.72;;;10.08;56.76
50977;BME280;36992;48.200;12.418;2024-03-22T04:50:42;97244.47;;;10.06;56.97
50977;BME280;36992;48.200;12.418;2024-03-22T04:53:08;97236.97;;;10.03;56.71
50977;BME280;36992;48.200;12.418;2024-03-22T04:55:35;97238.03;;;10.02;56.86
50977;BME280;36992;48.200;12.418;2024-03-22T04:58:01;97244.22;;;10.03;56.73
50977;BME280;36992;48.200;12.418;2024-03-22T05:00:27;97245.56;;;10.00;56.68
50977;BME280;36992;48.200;12.418;2024-03-22T05:02:53;97245.03;;;9.98;56.99
50977;BME280;36992;48.200;12.418;2024-03-22T05:05:21;97240.75;;;9.97;56.68
50977;BME280;36992;48.200;12.418;2024-03-22T05:07:47;97239.16;;;9.91;56.76
50977;BME280;36992;48.200;12.418;2024-03-22T05:10:13;97237.00;;;9.88;56.77
50977;BME280;36992;48.200;12.418;2024-03-22T05:12:39;97237.56;;;9.84;56.79
50977;BME280;36992;48.200;12.418;2024-03-22T05:15:06;97236.50;;;9.80;56.96
50977;BME280;36992;48.200;12.418;2024-03-22T05:17:32;97234.34;;;9.77;57.15
50977;BME280;36992;48.200;12.418;2024-03-22T05:19:59;97232.19;;;9.74;57.31
50977;BME280;36992;48.200;12.418;2024-03-22T05:22:27;97236.78;;;9.74;57.05
50977;BME280;36992;48.200;12.418;2024-03-22T05:24:53;97238.69;;;9.68;57.09
50977;BME280;36992;48.200;12.418;2024-03-22T05:27:19;97231.94;;;9.65;57.14
50977;BME280;36992;48.200;12.418;2024-03-22T05:29:46;97241.38;;;9.63;57.28
50977;BME280;36992;48.200;12.418;2024-03-22T05:32:11;97237.34;;;9.60;57.79
50977;BME280;36992;48.200;12.418;2024-03-22T05:34:38;97244.09;;;9.57;58.00
50977;BME280;36992;48.200;12.418;2024-03-22T05:37:04;97233.34;;;9.57;57.86
50977;BME280;36992;48.200;12.418;2024-03-22T05:39:32;97240.31;;;9.58;57.75
50977;BME280;36992;48.200;12.418;2024-03-22T05:41:57;97240.59;;;9.57;58.04
50977;BME280;36992;48.200;12.418;2024-03-22T05:44:24;97239.78;;;9.56;57.83
50977;BME280;36992;48.200;12.418;2024-03-22T05:46:49;97237.09;;;9.56;58.01
50977;BME280;36992;48.200;12.418;2024-03-22T05:49:16;97240.06;;;9.55;57.86
50977;BME280;36992;48.200;12.418;2024-03-22T05:51:42;97230.91;;;9.56;58.24
50977;BME280;36992;48.200;12.418;2024-03-22T05:54:09;97238.72;;;9.57;58.11
50977;BME280;36992;48.200;12.418;2024-03-22T05:56:36;97240.03;;;9.60;58.26
50977;BME280;36992;48.200;12.418;2024-03-22T05:59:03;97234.94;;;9.58;58.40
50977;BME280;36992;48.200;12.418;2024-03-22T06:01:28;97233.31;;;9.63;58.65
50977;BME280;36992;48.200;12.418;2024-03-22T06:03:55;97234.94;;;9.64;58.63
50977;BME280;36992;48.200;12.418;2024-03-22T06:06:21;97226.31;;;9.67;58.87
50977;BME280;36992;48.200;12.418;2024-03-22T06:08:50;97224.13;;;9.69;58.89
50977;BME280;36992;48.200;12.418;2024-03-22T06:11:18;97224.41;;;9.72;59.11
50977;BME280;36992;48.200;12.418;2024-03-22T06:13:45;97217.91;;;9.79;58.86
50977;BME280;36992;48.200;12.418;2024-03-22T06:16:11;97230.03;;;9.81;59.01
50977;BME280;36992;48.200;12.418;2024-03-22T06:18:38;97223.03;;;9.85;59.00
50977;BME280;36992;48.200;12.418;2024-03-22T06:21:04;97219.50;;;9.90;59.11
50977;BME280;36992;48.200;12.418;2024-03-22T06:23:31;97217.06;;;9.94;59.04
50977;BME280;36992;48.200;12.418;2024-03-22T06:25:57;97226.19;;;9.98;59.13
50977;BME280;36992;48.200;12.418;2024-03-22T06:28:23;97217.59;;;10.01;59.02
50977;BME280;36992;48.200;12.418;2024-03-22T06:30:50;97212.72;;;10.08;58.68
50977;BME280;36992;48.200;12.418;2024-03-22T06:33:17;97209.44;;;10.11;58.84
50977;BME280;36992;48.200;12.418;2024-03-22T06:35:42;97213.22;;;10.16;58.85
50977;BME280;36992;48.200;12.418;2024-03-22T06:38:09;97202.69;;;10.19;58.46
50977;BME280;36992;48.200;12.418;2024-03-22T06:40:35;97212.63;;;10.24;58.61
50977;BME280;36992;48.200;12.418;2024-03-22T06:43:01;97200.50;;;10.26;58.61
50977;BME280;36992;48.200;12.418;2024-03-22T06:45:27;97205.34;;;10.30;58.45
50977;BME280;36992;48.200;12.418;2024-03-22T06:47:55;97201.81;;;10.34;58.39
50977;BME280;36992;48.200;12.418;2024-03-22T06:50:20;97202.59;;;10.35;58.39
50977;BME280;36992;48.200;12.418;2024-03-22T06:52:49;97203.38;;;10.41;58.25
50977;BME280;36992;48.200;12.418;2024-03-22T06:55:15;97208.22;;;10.44;58.19
50977;BME280;36992;48.200;12.418;2024-03-22T06:57:41;97207.97;;;10.45;58.18
50977;BME280;36992;48.200;12.418;2024-03-22T07:00:07;97214.41;;;10.49;58.43
50977;BME280;36992;48.200;12.418;2024-03-22T07:02:35;97208.75;;;10.51;58.41
50977;BME280;36992;48.200;12.418;2024-03-22T07:05:02;97207.91;;;10.56;58.17
50977;BME280;36992;48.200;12.418;2024-03-22T07:07:29;97208.69;;;10.56;58.40
50977;BME280;36992;48.200;12.418;2024-03-22T07:09:56;97202.25;;;10.57;58.72
50977;BME280;36992;48.200;12.418;2024-03-22T07:12:22;97202.25;;;10.57;58.60
50977;BME280;36992;48.200;12.418;2024-03-22T07:14:48;97206.53;;;10.58;58.59
50977;BME280;36992;48.200;12.418;2024-03-22T07:17:14;97208.16;;;10.59;58.51
50977;BME280;36992;48.200;12.418;2024-03-22T07:19:40;97205.97;;;10.61;58.95
50977;BME280;36992;48.200;12.418;2024-03-22T07:22:09;97201.91;;;10.64;58.76
50977;BME280;36992;48.200;12.418;2024-03-22T07:24:34;97205.41;;;10.64;58.85
50977;BME280;36992;48.200;12.418;2024-03-22T07:27:01;97207.53;;;10.68;58.79
50977;BME280;36992;48.200;12.418;2024-03-22T07:29:27;97204.84;;;10.68;58.92
50977;BME280;36992;48.200;12.418;2024-03-22T07:31:53;97199.69;;;10.71;58.47
50977;BME280;36992;48.200;12.418;2024-03-22T07:34:19;97206.41;;;10.74;58.73
50977;BME280;36992;48.200;12.418;2024-03-22T07:36:45;97213.97;;;10.77;58.80
50977;BME280;36992;48.200;12.418;2024-03-22T07:39:12;97199.63;;;10.82;58.92
50977;BME280;36992;48.200;12.418;2024-03-22T07:41:40;97207.72;;;10.82;59.04
50977;BME280;36992;48.200;12.418;2024-03-22T07:44:05;97209.56;;;10.86;59.23
50977;BME280;36992;48.200;12.418;2024-03-22T07:46:32;97205.50;;;10.89;59.24
50977;BME280;36992;48.200;12.418;2024-03-22T07:48:58;97211.94;;;10.93;59.33
50977;BME280;36992;48.200;12.418;2024-03-22T07:51:24;97211.09;;;10.98;59.05
50977;BME280;36992;48.200;12.418;2024-03-22T07:53:50;97200.28;;;11.03;59.08
50977;BME280;36992;48.200;12.418;2024-03-22T07:56:18;97193.22;;;11.07;59.13
50977;BME280;36992;48.200;12.418;2024-03-22T07:58:44;97193.97;;;11.13;58.70
50977;BME280;36992;48.200;12.418;2024-03-22T08:01:10;97200.13;;;11.18;58.67
50977;BME280;36992;48.200;12.418;2024-03-22T08:03:36;97190.38;;;11.23;58.94
50977;BME280;36992;48.200;12.418;2024-03-22T08:06:03;97195.72;;;11.28;59.46
50977;BME280;36992;48.200;12.418;2024-03-22T08:08:29;97195.16;;;11.31;59.17
50977;BME280;36992;48.200;12.418;2024-03-22T08:10:55;97186.22;;;11.36;58.94
50977;BME280;36992;48.200;12.418;2024-03-22T08:13:22;97180.47;;;11.42;58.84
50977;BME280;36992;48.200;12.418;2024-03-22T08:15:49;97175.31;;;11.46;58.55
50977;BME280;36992;48.200;12.418;2024-03-22T08:18:14;97170.13;;;11.50;58.52
50977;BME280;36992;48.200;12.418;2024-03-22T08:20:41;97172.78;;;11.55;58.64
50977;BME280;36992;48.200;12.418;2024-03-22T08:23:07;97166.00;;;11.57;58.97
50977;BME280;36992;48.200;12.418;2024-03-22T08:25:33;97167.84;;;11.62;58.38
50977;BME280;36992;48.200;12.418;2024-03-22T08:27:59;97161.88;;;11.65;58.56
50977;BME280;36992;48.200;12.418;2024-03-22T08:30:27;97164.53;;;11.70;58.47
50977;BME280;36992;48.200;12.418;2024-03-22T08:32:53;97162.34;;;11.72;58.36
50977;BME280;36992;48.200;12.418;2024-03-22T08:35:19;97161.47;;;11.77;58.65
50977;BME280;36992;48.200;12.418;2024-03-22T08:37:45;97159.00;;;11.81;58.83
50977;BME280;36992;48.200;12.418;2024-03-22T08:40:12;97159.22;;;11.84;59.00
50977;BME280;36992;48.200;12.418;2024-03-22T08:42:39;97163.22;;;11.87;58.46
50977;BME280;36992;48.200;12.418;2024-03-22T08:45:07;97161.28;;;11.93;58.12
50977;BME280;36992;48.200;12.418;2024-03-22T08:47:34;97162.28;;;11.97;58.17
50977;BME280;36992;48.200;12.418;2024-03-22T08:50:00;97158.22;;;11.99;57.84
50977;BME280;36992;48.200;12.418;2024-03-22T08:52:26;97163.31;;;12.06;58.18
50977;BME280;36992;48.200;12.418;2024-03-22T08:54:52;97161.31;;;12.12;58.17
50977;BME280;36992;48.200;12.418;2024-03-22T08:57:18;97163.13;;;12.17;57.66
50977;BME280;36992;48.200;12.418;2024-03-22T08:59:45;97153.09;;;12.22;57.88
50977;BME280;36992;48.200;12.418;2024-03-22T09:02:10;97149.50;;;12.27;57.73
50977;BME280;36992;48.200;12.418;2024-03-22T09:04:38;97151.53;;;12.35;57.52
50977;BME280;36992;48.200;12.418;2024-03-22T09:07:04;97145.84;;;12.37;57.80
50977;BME280;36992;48.200;12.418;2024-03-22T09:09:31;97150.59;;;12.45;57.27
50977;BME280;36992;48.200;12.418;2024-03-22T09:11:56;97144.03;;;12.51;56.38
50977;BME280;36992;48.200;12.418;2024-03-22T09:14:23;97137.44;;;12.58;56.08
50977;BME280;36992;48.200;12.418;2024-03-22T09:16:49;97140.56;;;12.65;56.24
50977;BME280;36992;48.200;12.418;2024-03-22T09:19:15;97138.88;;;12.69;56.46
50977;BME280;36992;48.200;12.418;2024-03-22T09:21:42;97135.50;;;12.77;55.86
50977;BME280;36992;48.200;12.418;2024-03-22T09:24:09;97136.50;;;12.81;56.59
50977;BME280;36992;48.200;12.418;2024-03-22T09:26:34;97126.72;;;12.86;56.92
50977;BME280;36992;48.200;12.418;2024-03-22T09:29:01;97130.94;;;12.92;56.67
50977;BME280;36992;48.200;12.418;2024-03-22T09:31:29;97124.03;;;13.00;56.46
50977;BME280;36992;48.200;12.418;2024-03-22T09:33:56;97122.56;;;13.07;56.62
50977;BME280;36992;48.200;12.418;2024-03-22T09:36:21;97113.25;;;13.14;56.79
50977;BME280;36992;48.200;12.418;2024-03-22T09:38:49;97115.75;;;13.24;56.63
50977;BME280;36992;48.200;12.418;2024-03-22T09:41:15;97107.25;;;13.31;56.77
50977;BME280;36992;48.200;12.418;2024-03-22T09:43:43;97100.84;;;13.41;57.36
50977;BME280;36992;48.200;12.418;2024-03-22T09:46:10;97105.06;;;13.47;56.54
50977;BME280;36992;48.200;12.418;2024-03-22T09:48:38;97092.75;;;13.55;56.36
50977;BME280;36992;48.200;12.418;2024-03-22T09:51:04;97093.13;;;13.62;55.97
50977;BME280;36992;48.200;12.418;2024-03-22T09:53:32;97088.88;;;13.70;55.83
50977;BME280;36992;48.200;12.418;2024-03-22T09:55:59;97090.91;;;13.78;56.06
50977;BME280;36992;48.200;12.418;2024-03-22T09:58:27;97083.75;;;13.82;55.50
50977;BME280;36992;48.200;12.418;2024-03-22T10:00:52;97071.22;;;13.86;55.49
50977;BME280;36992;48.200;12.418;2024-03-22T10:03:25;97081.03;;;13.96;55.94
50977;BME280;36992;48.200;12.418;2024-03-22T10:05:51;97067.56;;;14.05;56.15
50977;BME280;36992;48.200;12.418;2024-03-22T10:08:17;97078.75;;;14.12;55.72
50977;BME280;36992;48.200;12.418;2024-03-22T10:10:43;97069.94;;;14.21;55.12
50977;BME280;36992;48.200;12.418;2024-03-22T10:13:11;97066.16;;;14.30;55.21
50977;BME280;36992;48.200;12.418;2024-03-22T10:15:38;97066.84;;;14.36;55.06
50977;BME280;36992;48.200;12.418;2024-03-22T10:18:05;97067.19;;;14.43;54.97
50977;BME280;36992;48.200;12.418;2024-03-22T10:20:31;97068.19;;;14.48;55.13
50977;BME280;36992;48.200;12.418;2024-03-22T10:22:59;97065.84;;;14.55;54.67
50977;BME280;36992;48.200;12.418;2024-03-22T10:25:25;97056.16;;;14.63;54.44
50977;BME280;36992;48.200;12.418;2024-03-22T10:27:53;97060.84;;;14.71;54.33
50977;BME280;36992;48.200;12.418;2024-03-22T10:30:21;97062.03;;;14.79;54.49
50977;BME280;36992;48.200;12.418;2024-03-22T10:32:48;97056.47;;;14.84;54.29
50977;BME280;36992;48.200;12.418;2024-03-22T10:35:14;97055.72;;;14.92;54.60
50977;BME280;36992;48.200;12.418;2024-03-22T10:37:42;97051.44;;;15.00;53.54
50977;BME280;36992;48.200;12.418;2024-03-22T10:40:08;97048.78;;;15.09;54.08
50977;BME280;36992;48.200;12.418;2024-03-22T10:42:37;97048.28;;;15.16;52.50
50977;BME280;36992;48.200;12.418;2024-03-22T10:45:04;97051.03;;;15.24;53.54
50977;BME280;36992;48.200;12.418;2024-03-22T10:47:34;97053.00;;;15.33;52.92
50977;BME280;36992;48.200;12.418;2024-03-22T10:50:04;97038.66;;;15.41;52.35
50977;BME280;36992;48.200;12.418;2024-03-22T10:52:33;97036.56;;;15.47;52.93
50977;BME280;36992;48.200;12.418;2024-03-22T10:55:02;97037.25;;;15.53;51.13
50977;BME280;36992;48.200;12.418;2024-03-22T10:57:30;97034.69;;;15.56;49.54
50977;BME280;36992;48.200;12.418;2024-03-22T10:59:56;97035.31;;;15.62;48.14
50977;BME280;36992;48.200;12.418;2024-03-22T11:02:24;97039.50;;;15.68;47.70
50977;BME280;36992;48.200;12.418;2024-03-22T11:04:56;97027.03;;;15.76;47.57
50977;BME280;36992;48.200;12.418;2024-03-22T11:07:23;97027.66;;;15.82;47.83
50977;BME280;36992;48.200;12.418;2024-03-22T11:09:56;97023.38;;;15.89;47.38
50977;BME280;36992;48.200;12.418;2024-03-22T11:12:24;97012.69;;;15.93;46.93
50977;BME280;36992;48.200;12.418;2024-03-22T11:14:50;97011.88;;;16.01;47.04
50977;BME280;36992;48.200;12.418;2024-03-22T11:17:17;97020.84;;;16.11;45.87
50977;BME280;36992;48.200;12.418;2024-03-22T11:19:43;97017.97;;;16.16;45.60
50977;BME280;36992;48.200;12.418;2024-03-22T11:22:11;97010.44;;;16.22;45.75
50977;BME280;36992;48.200;12.418;2024-03-22T11:24:38;97004.03;;;16.26;45.28
50977;BME280;36992;48.200;12.418;2024-03-22T11:27:05;97009.28;;;16.31;45.38
50977;BME280;36992;48.200;12.418;2024-03-22T11:29:30;97008.66;;;16.35;45.63
50977;BME280;36992;48.200;12.418;2024-03-22T11:31:57;97000.00;;;16.41;45.50
50977;BME280;36992;48.200;12.418;2024-03-22T11:34:22;96993.63;;;16.46;45.76
50977;BME280;36992;48.200;12.418;2024-03-22T11:36:49;96995.22;;;16.47;45.17
50977;BME280;36992;48.200;12.418;2024-03-22T11:39:18;96990.38;;;16.53;44.21
50977;BME280;36992;48.200;12.418;2024-03-22T11:41:45;96979.19;;;16.54;44.50
50977;BME280;36992;48.200;12.418;2024-03-22T11:44:13;96984.78;;;16.58;44.77
50977;BME280;36992;48.200;12.418;2024-03-22T11:46:40;96974.84;;;16.62;43.65
50977;BME280;36992;48.200;12.418;2024-03-22T11:49:06;96969.56;;;16.66;44.05
50977;BME280;36992;48.200;12.418;2024-03-22T11:51:33;96963.00;;;16.67;43.66
50977;BME280;36992;48.200;12.418;2024-03-22T11:53:58;96952.56;;;16.69;43.43
50977;BME280;36992;48.200;12.418;2024-03-22T11:56:30;96950.63;;;16.78;44.10
50977;BME280;36992;48.200;12.418;2024-03-22T11:58:58;96946.47;;;16.81;43.77
50977;BME280;36992;48.200;12.418;2024-03-22T12:01:26;96945.47;;;16.85;43.44
50977;BME280;36992;48.200;12.418;2024-03-22T12:03:51;96942.56;;;16.91;43.17
50977;BME280;36992;48.200;12.418;2024-03-22T12:06:18;96947.47;;;16.97;44.40
50977;BME280;36992;48.200;12.418;2024-03-22T12:08:44;96936.72;;;17.01;43.35
50977;BME280;36992;48.200;12.418;2024-03-22T12:11:10;96935.78;;;17.06;43.91
50977;BME280;36992;48.200;12.418;2024-03-22T12:13:37;96923.25;;;17.13;43.49
50977;BME280;36992;48.200;12.418;2024-03-22T12:16:05;96915.56;;;17.16;43.56
50977;BME280;36992;48.200;12.418;2024-03-22T12:18:31;96909.44;;;17.19;43.16
50977;BME280;36992;48.200;12.418;2024-03-22T12:20:57;96902.69;;;17.25;42.53
50977;BME280;36992;48.200;12.418;2024-03-22T12:23:23;96906.00;;;17.31;42.59
50977;BME280;36992;48.200;12.418;2024-03-22T12:25:50;96899.13;;;17.33;42.12
50977;BME280;36992;48.200;12.418;2024-03-22T12:28:16;96894.25;;;17.39;43.54
50977;BME280;36992;48.200;12.418;2024-03-22T12:30:44;96891.00;;;17.46;44.14
50977;BME280;36992;48.200;12.418;2024-03-22T12:33:10;96881.34;;;17.48;43.64
50977;BME280;36992;48.200;12.418;2024-03-22T12:35:36;96881.50;;;17.52;43.82
50977;BME280;36992;48.200;12.418;2024-03-22T12:38:02;96868.00;;;17.56;42.42
50977;BME280;36992;48.200;12.418;2024-03-22T12:40:29;96862.22;;;17.57;41.23
50977;BME280;36992;48.200;12.418;2024-03-22T12:42:55;96852.25;;;17.61;41.50
50977;BME280;36992;48.200;12.418;2024-03-22T12:45:21;96855.91;;;17.65;42.02
50977;BME280;36992;48.200;12.418;2024-03-22T12:47:49;96853.44;;;17.73;42.70
50977;BME280;36992;48.200;12.418;2024-03-22T12:50:15;96848.75;;;17.73;42.55
50977;BME280;36992;48.200;12.418;2024-03-22T12:52:41;96847.78;;;17.78;42.78